Time;durP1;ratioP1;P1;durP2;ratioP2;P2;SDS_P1;SDS_P2;PMS_P1;PMS_P2;Temp;Humidity;BMP_temperature;BMP_pressure;BME280_temperature;BME280_humidity;BME280_pressure;Samples;Min_cycle;Max_cycle;Signal;HPM_P1;HPM_P2
2022/04/21 00:01:04;;;;;;;18.75;13.25;;;;;;;6.90;67.91;100136.31;5081320;28;20031;-71
2022/04/21 00:03:29;;;;;;;18.73;13.55;;;;;;;7.03;68.22;100168.19;5087896;28;20028;-71
2022/04/21 00:05:54;;;;;;;16.08;12.63;;;;;;;6.99;68.36;100161.41;5067371;28;20081;-70
2022/04/21 00:08:20;;;;;;;18.15;13.70;;;;;;;6.94;68.16;100153.75;5078795;28;20089;-70
2022/04/21 00:10:46;;;;;;;18.58;13.60;;;;;;;6.89;68.59;100145.28;5088701;28;20035;-70
2022/04/21 00:13:12;;;;;;;19.70;14.05;;;;;;;6.93;68.92;100168.06;5088544;28;20440;-70
2022/04/21 00:15:38;;;;;;;17.58;13.25;;;;;;;6.86;68.76;100160.63;5067003;28;20024;-70
2022/04/21 00:18:04;;;;;;;19.60;13.38;;;;;;;6.79;68.72;100156.72;5068456;28;20024;-70
2022/04/21 00:20:30;;;;;;;18.85;13.63;;;;;;;6.73;69.06;100150.06;5076237;28;20028;-71
2022/04/21 00:25:39;;;;;;;21.20;14.07;;;;;;;6.73;69.85;100150.06;5088578;28;20061;-70
2022/04/21 00:28:06;;;;;;;17.45;12.10;;;;;;;6.69;70.49;100158.38;5078015;28;20031;-71
2022/04/21 00:30:32;;;;;;;17.35;13.35;;;;;;;6.64;70.26;100160.53;5088659;28;20111;-70
2022/04/21 00:32:57;;;;;;;16.60;12.90;;;;;;;6.57;70.95;100156.63;5088483;28;20549;-71
2022/04/21 00:35:23;;;;;;;18.83;12.73;;;;;;;6.55;71.46;100163.91;5088712;28;20474;-70
2022/04/21 00:37:51;;;;;;;17.83;12.88;;;;;;;6.45;70.78;100158.38;5078212;28;20032;-70
2022/04/21 00:40:19;;;;;;;18.95;13.52;;;;;;;6.42;71.13;100158.59;5066944;28;20020;-70
2022/04/21 00:42:45;;;;;;;17.80;13.23;;;;;;;6.37;72.11;100157.25;5068145;28;20027;-70
2022/04/21 00:45:12;;;;;;;19.35;13.43;;;;;;;6.31;71.98;100161.22;5068164;28;20036;-70
2022/04/21 00:47:42;;;;;;;18.33;14.07;;;;;;;6.25;71.98;100164.31;5068235;28;20033;-71
2022/04/21 00:50:18;;;;;;;20.45;13.30;;;;;;;6.21;71.86;100159.31;5066930;28;20596;-70
2022/04/21 00:52:45;;;;;;;20.70;14.50;;;;;;;6.13;72.99;100159.88;5075003;28;20028;-70
2022/04/21 00:55:11;;;;;;;17.63;13.00;;;;;;;6.08;73.73;100156.69;5086790;28;20501;-70
2022/04/21 00:57:40;;;;;;;20.17;13.82;;;;;;;6.04;73.44;100157.03;5088201;28;20362;-71
2022/04/21 01:00:06;;;;;;;18.02;12.98;;;;;;;6.00;73.61;100160.88;5087251;28;20377;-70
2022/04/21 01:02:52;;;;;;;17.92;13.70;;;;;;;5.94;73.45;100148.00;5088612;28;20031;-70
2022/04/21 01:05:31;;;;;;;18.73;14.25;;;;;;;5.91;73.79;100156.22;5080443;28;20023;-70
2022/04/21 01:08:01;;;;;;;16.90;13.50;;;;;;;5.78;73.79;100142.91;5082979;28;20064;-70
2022/04/21 01:10:28;;;;;;;18.17;13.68;;;;;;;5.80;74.29;100156.94;5083747;28;20495;-70
2022/04/21 01:12:54;;;;;;;17.58;13.23;;;;;;;5.72;74.81;100153.97;5074191;28;20455;-70
2022/04/21 01:15:20;;;;;;;18.85;13.65;;;;;;;5.65;75.15;100147.38;5059176;28;20026;-70
2022/04/21 01:17:45;;;;;;;19.33;13.95;;;;;;;5.64;75.31;100150.16;5067711;28;20390;-70
2022/04/21 01:20:16;;;;;;;22.00;13.68;;;;;;;5.66;75.76;100165.03;5066772;28;20020;-70
2022/04/21 01:22:41;;;;;;;21.98;14.45;;;;;;;5.63;76.24;100154.63;5067737;28;20496;-70
2022/04/21 01:25:07;;;;;;;15.18;12.77;;;;;;;5.58;75.86;100151.41;5073285;28;20024;-67
2022/04/21 01:27:35;;;;;;;18.27;13.25;;;;;;;5.55;75.51;100150.78;5076456;28;20047;-67
2022/04/21 01:30:04;;;;;;;19.00;14.32;;;;;;;5.52;76.05;100145.69;5080953;28;20024;-67
2022/04/21 01:32:34;;;;;;;22.33;14.80;;;;;;;5.52;75.89;100151.88;5084462;28;20032;-67
2022/04/21 01:35:00;;;;;;;20.13;14.65;;;;;;;5.51;75.98;100141.34;5072577;28;20039;-67
2022/04/21 01:42:53;;;;;;;;;;;;;;;5.40;76.56;100150.06;5080581;28;20032;-67
2022/04/21 01:45:19;;;;;;;18.67;13.82;;;;;;;5.40;77.50;100149.19;5076561;28;19913;-67
2022/04/21 01:47:44;;;;;;;18.58;13.00;;;;;;;5.31;77.48;100141.84;5074525;28;20441;-67
2022/04/21 01:50:10;;;;;;;19.02;14.20;;;;;;;5.31;77.47;100148.03;5068142;28;20064;-67
2022/04/21 01:52:37;;;;;;;19.30;13.60;;;;;;;5.31;77.51;100148.03;5070537;28;20101;-67
2022/04/21 01:55:04;;;;;;;20.50;14.15;;;;;;;5.23;77.90;100139.75;5065147;28;20040;-67
2022/04/21 01:57:30;;;;;;;19.35;14.18;;;;;;;5.27;77.78;100151.84;5070440;28;20048;-67
2022/04/21 01:59:55;;;;;;;18.77;13.88;;;;;;;5.19;77.54;100146.19;5070029;28;20029;-67
2022/04/21 02:02:20;;;;;;;17.17;13.80;;;;;;;5.14;77.48;100152.78;5065410;28;20059;-70
2022/04/21 02:04:46;;;;;;;18.77;14.20;;;;;;;5.05;77.69;100138.31;5069747;28;20107;-70
2022/04/21 02:07:11;;;;;;;18.30;13.52;;;;;;;5.03;77.95;100150.84;5077243;28;20035;-70
2022/04/21 02:09:37;;;;;;;20.65;14.15;;;;;;;4.93;77.96;100141.81;5089810;28;20474;-70
2022/04/21 02:12:03;;;;;;;17.23;13.18;;;;;;;4.82;77.90;100130.19;5087972;28;20490;-70
2022/04/21 02:14:28;;;;;;;22.75;14.63;;;;;;;4.75;78.27;100121.81;5070821;28;20037;-70
2022/04/21 02:16:53;;;;;;;19.33;14.38;;;;;;;4.78;78.35;100142.00;5070327;28;20493;-70
2022/04/21 02:19:19;;;;;;;20.65;13.75;;;;;;;4.70;78.73;100135.41;5070910;28;20024;-70
2022/04/21 02:21:44;;;;;;;20.88;14.38;;;;;;;4.67;78.89;100132.09;5070553;28;20032;-70
2022/04/21 02:24:10;;;;;;;20.58;14.52;;;;;;;4.63;79.00;100127.94;5077747;28;20484;-70
2022/04/21 02:26:35;;;;;;;19.00;14.52;;;;;;;4.56;79.44;100118.69;5091069;28;20016;-70
2022/04/21 02:29:01;;;;;;;21.50;15.00;;;;;;;4.56;79.63;100118.69;5082899;28;20032;-70
2022/04/21 02:31:26;;;;;;;19.58;14.82;;;;;;;4.53;79.64;100114.44;5079641;28;20490;-70
2022/04/21 02:33:52;;;;;;;20.70;14.27;;;;;;;4.52;79.83;100122.50;5072715;28;20051;-70
2022/04/21 02:36:17;;;;;;;20.13;15.13;;;;;;;4.52;79.95;100131.28;5070622;28;20024;-70
2022/04/21 02:38:42;;;;;;;19.02;14.15;;;;;;;4.47;80.02;100125.44;5090452;28;20027;-70
2022/04/21 02:41:08;;;;;;;19.17;14.48;;;;;;;4.47;80.19;100130.75;5090928;28;20078;-70
2022/04/21 02:43:33;;;;;;;22.15;14.85;;;;;;;4.46;80.84;100133.53;5090231;28;20073;-70
2022/04/21 02:45:59;;;;;;;21.25;14.18;;;;;;;4.42;81.17;100137.34;5076784;28;20053;-70
2022/04/21 02:48:24;;;;;;;19.23;13.98;;;;;;;4.38;81.39;100126.06;5088709;28;20106;-70
2022/04/21 02:50:50;;;;;;;18.52;13.73;;;;;;;4.34;81.42;100132.53;5090304;28;20028;-70
2022/04/21 02:53:18;;;;;;;21.23;15.05;;;;;;;4.32;80.86;100130.94;5088979;28;20028;-70
2022/04/21 02:58:28;;;;;;;19.52;14.80;;;;;;;4.15;81.29;100107.25;5081012;28;20036;-71
2022/04/21 03:00:53;;;;;;;20.33;14.57;;;;;;;4.18;81.59;100107.94;5069755;28;20036;-70
2022/04/21 03:03:19;;;;;;;20.20;14.38;;;;;;;4.18;81.93;100120.34;5075233;28;20027;-69
2022/04/21 03:05:45;;;;;;;19.70;14.75;;;;;;;4.10;82.08;100107.56;5072986;28;20119;-67
2022/04/21 03:08:10;;;;;;;19.30;14.52;;;;;;;4.09;82.01;100105.88;5087268;28;20024;-67
2022/04/21 03:10:35;;;;;;;21.48;14.35;;;;;;;4.00;81.86;100102.97;5080985;28;20035;-67
2022/04/21 03:13:01;;;;;;;20.13;14.23;;;;;;;3.99;81.47;100104.75;5082702;28;20461;-67
2022/04/21 03:15:26;;;;;;;20.48;15.00;;;;;;;3.90;80.99;100102.69;5078388;28;20462;-67
2022/04/21 03:17:52;;;;;;;20.23;14.77;;;;;;;3.84;81.57;100104.91;5079110;28;20035;-66
2022/04/21 03:25:45;;;;;;;23.73;14.68;;;;;;;3.73;82.86;100107.34;5081540;28;20043;-67
2022/04/21 03:28:11;;;;;;;19.02;14.13;;;;;;;3.69;83.11;100104.06;5080165;28;20017;-67
2022/04/21 03:30:37;;;;;;;24.50;15.75;;;;;;;3.68;83.85;100107.66;5084381;28;20035;-67
2022/04/21 03:33:03;;;;;;;23.10;15.25;;;;;;;3.68;84.15;100101.50;5073883;28;20020;-67
2022/04/21 03:35:28;;;;;;;17.42;14.73;;;;;;;3.71;84.05;100118.06;5069081;28;20031;-67
2022/04/21 03:37:54;;;;;;;22.40;14.73;;;;;;;3.64;84.29;100097.34;5059391;28;20039;-68
2022/04/21 03:40:19;;;;;;;19.75;14.90;;;;;;;3.57;85.12;100088.06;5062413;28;20043;-67
2022/04/21 03:42:46;;;;;;;26.23;16.70;;;;;;;3.54;85.94;100089.13;5067896;28;20119;-67
2022/04/21 03:45:11;;;;;;;25.10;15.93;;;;;;;3.68;87.27;100106.81;5072654;28;20108;-67
2022/04/21 03:47:38;;;;;;;24.00;15.88;;;;;;;3.72;88.27;100106.53;5068020;28;20105;-67
2022/04/21 03:50:04;;;;;;;22.77;15.55;;;;;;;3.70;88.84;100094.28;5070340;28;20905;-67
2022/04/21 03:52:30;;;;;;;22.08;16.38;;;;;;;3.78;88.54;100115.88;5073867;28;20024;-67
2022/04/21 03:54:55;;;;;;;19.63;14.90;;;;;;;3.67;88.57;100091.84;5088787;28;20504;-67
2022/04/21 03:57:20;;;;;;;27.75;16.83;;;;;;;3.78;88.99;100105.28;5082325;28;20020;-67
2022/04/21 03:59:46;;;;;;;22.90;15.80;;;;;;;3.79;89.43;100112.28;5069295;28;20123;-67
2022/04/21 04:02:11;;;;;;;21.45;15.38;;;;;;;3.79;89.35;100107.84;5081929;28;20370;-66
2022/04/21 04:04:37;;;;;;;25.17;16.42;;;;;;;3.86;89.30;100116.25;5081513;28;20089;-67
2022/04/21 04:12:34;;;;;;;;;;;;;;;3.91;89.35;100119.47;5077025;28;20079;-67
2022/04/21 04:15:01;;;;;;;21.92;16.40;;;;;;;3.90;88.69;100123.91;5081173;28;19934;-67
2022/04/21 04:17:26;;;;;;;26.67;17.65;;;;;;;3.93;88.22;100131.66;5079216;28;20106;-67
2022/04/21 04:19:52;;;;;;;27.60;17.85;;;;;;;3.88;88.64;100117.00;5071544;28;20035;-67
2022/04/21 04:22:18;;;;;;;28.45;18.10;;;;;;;3.99;88.96;100131.28;5077850;28;20035;-67
2022/04/21 04:24:47;;;;;;;30.02;19.35;;;;;;;4.02;89.51;100127.56;5078742;28;20657;-67
2022/04/21 04:27:12;;;;;;;30.00;20.90;;;;;;;4.13;90.11;100136.56;5078909;28;20051;-67
2022/04/21 04:29:38;;;;;;;33.72;21.52;;;;;;;4.19;90.41;100140.59;5070991;28;20051;-67
2022/04/21 04:32:04;;;;;;;30.55;21.35;;;;;;;4.23;90.35;100134.16;5086479;28;20024;-67
2022/04/21 04:34:30;;;;;;;29.75;21.08;;;;;;;4.31;90.58;100132.72;5076609;28;20036;-67
2022/04/21 04:36:55;;;;;;;28.83;20.35;;;;;;;4.50;91.15;100140.31;5080675;28;20097;-67
2022/04/21 04:39:21;;;;;;;30.00;21.50;;;;;;;4.61;91.09;100151.06;5083093;28;20028;-66
2022/04/21 04:44:31;;;;;;;32.85;19.25;;;;;;;4.93;90.16;100146.28;5073345;28;20023;-67
2022/04/21 04:46:57;;;;;;;28.35;19.80;;;;;;;5.01;88.97;100136.84;5082059;28;20032;-66
2022/04/21 04:49:23;;;;;;;25.15;18.13;;;;;;;5.16;87.96;100132.28;5068877;28;20146;-66
2022/04/21 04:51:48;;;;;;;24.08;18.13;;;;;;;5.33;86.77;100137.28;5073208;28;20025;-66
2022/04/21 04:54:15;;;;;;;28.73;18.77;;;;;;;5.47;86.01;100135.38;5087690;28;20107;-67
2022/04/21 04:56:43;;;;;;;23.50;16.30;;;;;;;5.65;85.13;100147.38;5077244;28;20107;-68
2022/04/21 04:59:09;;;;;;;23.33;16.83;;;;;;;5.82;83.11;100132.91;5071038;28;20031;-67
2022/04/21 05:01:41;;;;;;;27.17;16.02;;;;;;;5.95;82.49;100142.56;5084717;28;20036;-69
2022/04/21 05:04:11;;;;;;;20.42;15.50;;;;;;;6.14;81.30;100140.28;5074212;28;20111;-67
2022/04/21 05:06:38;;;;;;;23.55;16.63;;;;;;;6.30;80.63;100143.53;5073069;28;20103;-66
2022/04/21 05:09:05;;;;;;;22.33;16.48;;;;;;;6.48;79.23;100136.84;5075508;28;20101;-66
2022/04/21 05:11:32;;;;;;;21.95;15.82;;;;;;;6.65;77.96;100148.94;5080486;28;20043;-67
2022/04/21 05:13:57;;;;;;;23.13;16.33;;;;;;;6.76;77.38;100139.16;5079425;28;20032;-67
2022/04/21 05:16:23;;;;;;;24.33;15.77;;;;;;;6.99;76.24;100151.59;5069577;28;20048;-67
2022/04/21 05:18:49;;;;;;;21.95;15.38;;;;;;;7.19;75.56;100142.06;5078678;28;20024;-67
2022/04/21 05:21:16;;;;;;;21.00;14.95;;;;;;;7.39;74.10;100143.22;5082294;28;20024;-66
2022/04/21 05:23:44;;;;;;;18.98;13.50;;;;;;;7.60;73.14;100141.53;5093310;28;20024;-67
2022/04/21 05:26:10;;;;;;;19.30;14.20;;;;;;;7.78;72.62;100143.63;5086930;28;20040;-66
2022/04/21 05:28:36;;;;;;;17.73;13.55;;;;;;;7.88;71.91;100130.38;5086914;28;20382;-67
2022/04/21 05:31:02;;;;;;;18.08;13.80;;;;;;;8.06;71.49;100143.09;5078679;28;20035;-67
2022/04/21 05:33:29;;;;;;;22.70;13.88;;;;;;;8.21;70.68;100133.00;5082269;28;20078;-66
2022/04/21 05:35:58;;;;;;;22.02;14.48;;;;;;;8.36;70.47;100139.81;5093333;28;20518;-66
2022/04/21 05:38:24;;;;;;;18.48;13.45;;;;;;;8.46;69.43;100127.41;5080428;28;20042;-66
2022/04/21 05:40:50;;;;;;;20.13;13.52;;;;;;;8.67;68.38;100131.81;5079932;28;20268;-66
2022/04/21 05:43:18;;;;;;;18.30;13.27;;;;;;;8.77;68.09;100132.75;5087538;28;20031;-66
2022/04/21 05:45:48;;;;;;;16.92;12.90;;;;;;;8.95;68.01;100130.34;5085325;28;20442;-67
2022/04/21 05:48:15;;;;;;;19.60;13.60;;;;;;;9.17;67.07;100133.78;5074608;28;20049;-67
2022/04/21 05:50:45;;;;;;;17.67;12.43;;;;;;;9.54;64.17;100133.31;5082112;28;20024;-67
2022/04/21 05:53:18;;;;;;;18.90;12.48;;;;;;;9.80;63.50;100134.56;5087115;28;20084;-67
2022/04/21 05:55:44;;;;;;;18.40;13.23;;;;;;;9.82;63.46;100130.75;5076040;28;20029;-67
2022/04/21 05:58:09;;;;;;;23.05;13.18;;;;;;;10.12;62.15;100138.78;5070928;28;20027;-66
2022/04/21 06:00:35;;;;;;;18.05;13.10;;;;;;;10.23;61.69;100133.34;5074407;28;20031;-66
2022/04/21 06:03:01;;;;;;;15.43;12.80;;;;;;;10.36;62.04;100141.97;5077824;28;20025;-70
2022/04/21 06:05:26;;;;;;;20.05;12.93;;;;;;;10.61;60.43;100133.41;5072975;28;20390;-70
2022/04/21 06:07:51;;;;;;;19.00;12.82;;;;;;;10.74;60.32;100135.81;5080475;28;20032;-69
2022/04/21 06:10:17;;;;;;;18.02;13.60;;;;;;;10.94;59.96;100130.28;5083369;28;20024;-70
2022/04/21 06:12:43;;;;;;;23.48;14.63;;;;;;;11.04;60.12;100122.25;5080385;28;20035;-71
2022/04/21 06:15:09;;;;;;;18.05;13.25;;;;;;;11.27;60.89;100123.63;5071810;28;20501;-70
2022/04/21 06:17:34;;;;;;;20.38;13.35;;;;;;;11.51;59.25;100124.00;5081677;28;20054;-71
2022/04/21 06:20:00;;;;;;;19.45;12.15;;;;;;;11.69;58.41;100114.25;5078409;28;20121;-71
2022/04/21 06:22:25;;;;;;;16.42;12.38;;;;;;;11.94;57.08;100120.78;5070745;28;20439;-71
2022/04/21 06:24:51;;;;;;;16.73;13.05;;;;;;;12.13;56.59;100118.88;5085029;28;20016;-71
2022/04/21 06:27:16;;;;;;;18.48;12.80;;;;;;;12.29;55.78;100121.72;5071468;28;20031;-71
2022/04/21 06:29:42;;;;;;;16.98;12.77;;;;;;;12.35;56.63;100117.63;5070952;28;20028;-71
2022/04/21 06:32:07;;;;;;;15.15;12.40;;;;;;;12.58;54.89;100126.94;5085969;28;20157;-71
2022/04/21 06:34:33;;;;;;;18.55;13.00;;;;;;;12.61;54.91;100102.44;5081365;28;20115;-71
2022/04/21 06:37:02;;;;;;;17.10;12.55;;;;;;;12.84;54.27;100117.13;5069062;28;20035;-71
2022/04/21 06:39:27;;;;;;;17.10;12.45;;;;;;;13.01;53.11;100124.38;5086178;28;20043;-71
2022/04/21 06:41:53;;;;;;;19.58;12.95;;;;;;;13.10;53.42;100110.81;5070059;28;20021;-71
2022/04/21 06:49:47;;;;;;;16.02;11.73;;;;;;;13.20;53.29;100106.22;5082733;28;20105;-71
2022/04/21 06:52:12;;;;;;;14.85;11.68;;;;;;;13.35;52.96;100106.50;5075207;28;20036;-71
2022/04/21 06:54:38;;;;;;;15.20;10.80;;;;;;;13.52;52.82;100125.28;5081549;28;20020;-71
2022/04/21 06:57:03;;;;;;;14.75;11.23;;;;;;;13.77;51.62;100123.59;5085378;28;20680;-71
2022/04/21 06:59:29;;;;;;;10.65;8.93;;;;;;;13.97;50.91;100113.41;5069128;28;20517;-71
2022/04/21 07:01:54;;;;;;;10.60;8.50;;;;;;;14.25;49.98;100120.31;5079543;28;20467;-71
2022/04/21 07:04:20;;;;;;;16.02;9.95;;;;;;;14.51;49.03;100113.81;5073138;28;20029;-71
2022/04/21 07:06:46;;;;;;;13.43;10.35;;;;;;;14.68;48.21;100112.88;5082449;28;20122;-70
2022/04/21 07:09:11;;;;;;;12.50;9.43;;;;;;;14.82;47.15;100109.50;5073875;28;20039;-71
2022/04/21 07:11:40;;;;;;;12.52;8.55;;;;;;;14.88;47.14;100111.53;5088751;28;20547;-71
2022/04/21 07:14:06;;;;;;;10.40;6.80;;;;;;;15.05;45.48;100107.84;5075301;28;20037;-71
2022/04/21 07:16:31;;;;;;;10.50;7.30;;;;;;;15.12;45.42;100106.16;5072394;28;20043;-71
2022/04/21 07:18:57;;;;;;;8.07;5.93;;;;;;;15.48;43.01;100106.69;5081200;28;20028;-71
2022/04/21 07:21:22;;;;;;;9.98;6.90;;;;;;;15.57;43.91;100102.94;5078897;28;20101;-71
2022/04/21 07:23:47;;;;;;;8.57;6.55;;;;;;;15.69;43.78;100105.13;5087292;28;20024;-72
2022/04/21 07:26:13;;;;;;;8.55;6.93;;;;;;;15.86;44.00;100108.59;5081497;28;20024;-71
2022/04/21 07:28:41;;;;;;;7.78;6.47;;;;;;;16.02;43.24;100105.84;5070309;28;20055;-71
2022/04/21 07:31:06;;;;;;;8.85;6.93;;;;;;;16.19;41.84;100103.94;5069098;28;20392;-71
2022/04/21 07:33:32;;;;;;;8.45;6.85;;;;;;;16.32;42.02;100096.94;5069643;28;20382;-71
2022/04/21 07:35:57;;;;;;;7.93;6.55;;;;;;;16.41;41.81;100104.00;5070522;28;20065;-71
2022/04/21 07:38:23;;;;;;;9.68;6.80;;;;;;;16.49;41.93;100104.00;5072431;28;20044;-67
2022/04/21 07:40:52;;;;;;;7.72;5.68;;;;;;;16.69;42.44;100104.38;5081388;28;20028;-67
2022/04/21 07:43:18;;;;;;;8.57;6.78;;;;;;;16.99;41.93;100098.09;5073092;28;20027;-67
2022/04/21 07:45:44;;;;;;;6.93;5.45;;;;;;;17.27;39.18;100091.06;5086725;28;20027;-65
2022/04/21 07:48:11;;;;;;;5.53;5.03;;;;;;;17.40;38.89;100088.56;5082195;28;20040;-67
2022/04/21 07:50:36;;;;;;;6.00;5.40;;;;;;;17.45;38.77;100094.31;5079990;28;20048;-68
2022/04/21 07:53:14;;;;;;;6.35;5.72;;;;;;;17.50;37.69;100084.59;5085157;28;20035;-67
2022/04/21 07:55:44;;;;;;;7.00;5.47;;;;;;;17.46;38.76;100079.72;5085163;28;20446;-67
2022/04/21 07:58:10;;;;;;;7.63;6.00;;;;;;;17.56;38.14;100085.72;5088159;28;20028;-67
2022/04/21 08:00:38;;;;;;;12.18;5.97;;;;;;;17.67;38.58;100082.59;5079820;28;20044;-68
2022/04/21 08:03:07;;;;;;;5.97;4.57;;;;;;;17.88;37.13;100090.81;5082471;28;20051;-67
2022/04/21 08:05:33;;;;;;;6.28;4.82;;;;;;;17.97;36.68;100085.09;5067350;28;20074;-67
2022/04/21 08:08:00;;;;;;;7.90;4.43;;;;;;;18.01;36.45;100085.56;5077736;28;20020;-67
2022/04/21 08:10:28;;;;;;;4.97;3.88;;;;;;;18.16;36.51;100082.84;5086466;28;20084;-67
2022/04/21 08:12:55;;;;;;;5.60;4.82;;;;;;;18.26;36.87;100081.53;5075847;28;20032;-69
2022/04/21 08:15:21;;;;;;;7.57;5.18;;;;;;;18.54;35.34;100090.66;5073210;28;20028;-67
2022/04/21 08:17:47;;;;;;;5.03;4.53;;;;;;;18.74;34.76;100077.31;5072418;28;20028;-66
2022/04/21 08:20:12;;;;;;;6.25;5.25;;;;;;;19.11;34.66;100079.78;5082216;28;20036;-68
2022/04/21 08:22:39;;;;;;;7.22;4.38;;;;;;;19.67;33.84;100076.94;5084307;28;20530;-68
2022/04/21 08:33:18;;;;;;;5.13;4.60;;;;;;;24.79;27.24;100066.75;5088533;28;20073;-70
2022/04/21 08:35:45;;;;;;;6.45;4.32;;;;;;;26.02;25.92;100061.97;5088251;28;20019;-72
2022/04/21 08:38:12;;;;;;;5.05;4.55;;;;;;;26.53;24.19;100062.00;5082799;28;20232;-68
2022/04/21 08:40:41;;;;;;;4.68;4.28;;;;;;;26.60;23.89;100056.38;5079884;28;20051;-67
2022/04/21 08:43:15;;;;;;;6.63;4.30;;;;;;;26.61;23.71;100059.94;5081015;28;20377;-69
2022/04/21 08:45:43;;;;;;;4.28;3.97;;;;;;;26.53;23.52;100073.00;5082779;28;20108;-69
2022/04/21 08:48:14;;;;;;;5.65;4.50;;;;;;;26.22;23.89;100053.34;5083501;28;20052;-68
2022/04/21 08:50:41;;;;;;;6.20;4.25;;;;;;;25.89;24.10;100058.63;5064999;28;20036;-67
2022/04/21 08:53:08;;;;;;;5.10;4.60;;;;;;;25.00;25.33;100066.22;5073963;28;21889;-68
2022/04/21 08:55:33;;;;;;;6.70;4.35;;;;;;;24.22;26.18;100071.66;5082431;28;20061;-67
2022/04/21 08:58:00;;;;;;;6.68;4.40;;;;;;;23.64;26.50;100083.22;5085352;28;20602;-67
2022/04/21 09:00:26;;;;;;;5.00;3.85;;;;;;;22.80;26.50;100080.03;5072341;28;20062;-67
2022/04/21 09:02:53;;;;;;;4.85;4.40;;;;;;;21.95;27.96;100080.31;5078687;28;20056;-71
2022/04/21 09:05:22;;;;;;;4.32;3.92;;;;;;;21.29;29.50;100088.75;5078471;28;20031;-66
2022/04/21 09:07:50;;;;;;;5.50;4.68;;;;;;;21.00;29.65;100092.69;5086213;28;20028;-66
2022/04/21 09:10:17;;;;;;;8.48;5.95;;;;;;;20.33;31.47;100085.50;5081641;28;20044;-66
2022/04/21 09:12:45;;;;;;;5.43;4.63;;;;;;;19.84;32.37;100091.94;5080678;28;20281;-66
2022/04/21 09:15:14;;;;;;;7.68;5.28;;;;;;;19.32;33.22;100094.22;5067522;28;20029;-67
2022/04/21 09:17:45;;;;;;;5.13;4.50;;;;;;;18.96;33.03;100085.28;5081377;28;20040;-70
2022/04/21 09:20:12;;;;;;;6.03;5.43;;;;;;;18.67;33.78;100088.09;5088007;28;20066;-71
2022/04/21 09:22:42;;;;;;;6.22;4.95;;;;;;;18.44;33.70;100090.13;5087711;28;20104;-70
2022/04/21 09:25:09;;;;;;;9.65;4.95;;;;;;;18.36;33.80;100087.53;5087801;28;20028;-71
2022/04/21 09:27:45;;;;;;;7.22;5.05;;;;;;;18.46;32.54;100096.22;5086305;28;20019;-70
2022/04/21 09:30:13;;;;;;;5.55;3.97;;;;;;;18.42;33.31;100094.94;5065998;28;20060;-70
2022/04/21 09:32:55;;;;;;;13.95;6.32;;;;;;;18.47;36.73;100088.94;5069980;28;20035;-71
2022/04/21 09:35:22;;;;;;;5.40;4.20;;;;;;;18.65;33.01;100098.34;5075804;28;20631;-70
2022/04/21 09:37:53;;;;;;;6.65;4.40;;;;;;;18.79;33.22;100081.16;5068201;28;20036;-70
2022/04/21 09:40:21;;;;;;;5.72;4.03;;;;;;;18.75;33.40;100095.31;5074670;28;20116;-70
2022/04/21 09:42:57;;;;;;;7.30;4.50;;;;;;;18.76;33.61;100086.97;5078129;28;20027;-70
2022/04/21 09:48:29;;;;;;;5.90;4.38;;;;;;;18.86;32.87;100073.91;5067031;28;20055;-67
2022/04/21 09:51:15;;;;;;;6.95;4.28;;;;;;;18.88;32.98;100077.28;5070423;28;20028;-67
2022/04/21 09:53:59;;;;;;;4.60;3.95;;;;;;;19.07;31.91;100067.63;5086375;28;20367;-71
2022/04/21 09:56:40;;;;;;;7.43;4.05;;;;;;;19.12;32.32;100071.44;5091345;28;20417;-67
2022/04/21 09:59:10;;;;;;;5.60;4.28;;;;;;;19.21;32.28;100070.25;5075290;28;20104;-67
2022/04/21 10:01:38;;;;;;;5.63;4.13;;;;;;;19.34;32.37;100066.84;5078881;28;20035;-67
2022/04/21 10:04:07;;;;;;;4.72;3.97;;;;;;;19.44;32.06;100064.66;5073036;28;20020;-67
2022/04/21 10:06:35;;;;;;;4.32;3.67;;;;;;;19.47;32.56;100065.06;5081204;28;20035;-68
2022/04/21 10:09:01;;;;;;;5.15;4.07;;;;;;;19.54;32.62;100062.41;5083861;28;20032;-67
2022/04/21 10:11:27;;;;;;;4.20;3.80;;;;;;;19.58;32.06;100060.97;5084390;28;20024;-66
2022/04/21 10:13:57;;;;;;;5.95;4.10;;;;;;;19.57;32.25;100057.41;5077873;28;20432;-66
2022/04/21 10:16:23;;;;;;;6.32;3.92;;;;;;;19.52;31.96;100048.16;5091257;28;20089;-67
2022/04/21 10:18:51;;;;;;;4.07;3.75;;;;;;;19.58;32.43;100055.53;5072542;28;20032;-66
2022/04/21 10:21:48;;;;;;;5.93;4.10;;;;;;;19.61;32.26;100049.69;5075160;28;20032;-65
2022/04/21 10:24:24;;;;;;;5.65;3.88;;;;;;;19.58;32.46;100034.59;5078172;28;20081;-66
2022/04/21 10:26:49;;;;;;;5.60;3.88;;;;;;;19.62;31.89;100048.66;5090832;28;20051;-66
2022/04/21 10:29:22;;;;;;;4.35;3.78;;;;;;;19.59;32.33;100041.72;5078401;28;20082;-66
2022/04/21 10:32:00;;;;;;;4.30;3.70;;;;;;;19.62;31.47;100044.06;5079901;28;20028;-66
2022/04/21 10:34:37;;;;;;;4.95;3.28;;;;;;;19.66;31.53;100037.16;5085127;28;20474;-67
2022/04/21 10:37:20;;;;;;;5.20;3.50;;;;;;;19.62;31.31;100040.47;5072766;28;20020;-66
2022/04/21 10:40:07;;;;;;;4.22;3.80;;;;;;;19.66;31.42;100031.72;5068552;28;20036;-70
2022/04/21 10:43:03;;;;;;;5.40;3.42;;;;;;;19.60;31.56;100026.22;5070383;28;20024;-70
2022/04/21 10:45:32;;;;;;;5.05;3.20;;;;;;;19.59;30.99;100019.97;5072689;28;20047;-70
2022/04/21 10:48:14;;;;;;;5.93;3.90;;;;;;;19.55;31.28;100020.56;5071967;28;20056;-70
2022/04/21 10:50:42;;;;;;;4.38;3.40;;;;;;;19.67;30.88;100017.06;5069273;28;20498;-70
2022/04/21 10:58:37;;;;;;;6.88;3.45;;;;;;;19.62;31.15;100014.13;5090619;28;20377;-69
2022/04/21 11:01:07;;;;;;;18.20;4.55;;;;;;;19.51;30.88;100001.06;5072461;28;20032;-69
2022/04/21 11:03:33;;;;;;;8.75;4.13;;;;;;;19.38;31.17;100008.31;5068868;28;20028;-69
2022/04/21 11:06:05;;;;;;;13.75;4.00;;;;;;;19.33;31.58;100008.03;5068169;28;20024;-69
2022/04/21 11:08:31;;;;;;;5.03;3.30;;;;;;;19.22;31.65;100001.22;5068800;28;20127;-69
2022/04/21 11:10:56;;;;;;;8.60;3.95;;;;;;;19.15;32.15;99996.81;5066836;28;20067;-69
2022/04/21 11:13:40;;;;;;;4.55;3.70;;;;;;;19.11;31.81;100006.38;5067414;28;20080;-70
2022/04/21 11:16:06;;;;;;;4.97;3.80;;;;;;;19.04;31.66;99995.47;5073942;28;20023;-70
2022/04/21 11:18:32;;;;;;;7.03;3.40;;;;;;;18.86;32.16;99984.22;5070909;28;20070;-70
2022/04/21 11:21:20;;;;;;;6.70;3.90;;;;;;;18.83;32.11;99990.03;5071684;28;20466;-70
2022/04/21 11:23:46;;;;;;;4.68;3.20;;;;;;;18.79;32.42;99996.06;5068602;28;20060;-69
2022/04/21 11:26:12;;;;;;;3.90;3.50;;;;;;;18.76;32.38;99994.56;5069756;28;20056;-71
2022/04/21 11:28:42;;;;;;;49.47;7.50;;;;;;;18.76;32.76;99991.84;5072384;28;20038;-71
2022/04/21 11:31:08;;;;;;;14.55;4.93;;;;;;;18.83;32.51;100009.06;5068996;28;20024;-70
2022/04/21 11:33:35;;;;;;;6.72;3.72;;;;;;;18.75;32.76;99997.47;5070143;28;20090;-72
2022/04/21 11:36:04;;;;;;;7.07;4.30;;;;;;;18.78;32.55;100003.38;5082745;28;20038;-72
2022/04/21 11:38:32;;;;;;;207.02;13.18;;;;;;;18.76;33.66;99996.47;5083742;28;20032;-72
2022/04/21 11:41:02;;;;;;;80.75;9.50;;;;;;;18.72;32.41;99993.28;5080040;28;20451;-71
2022/04/21 11:43:27;;;;;;;56.97;8.10;;;;;;;18.64;32.31;99977.09;5070710;28;20021;-71
2022/04/21 11:46:01;;;;;;;9.60;4.15;;;;;;;18.61;32.41;99991.09;5082952;28;20081;-70
2022/04/21 11:48:33;;;;;;;7.28;4.40;;;;;;;18.56;32.29;99993.53;5088595;28;20040;-66
2022/04/21 11:50:59;;;;;;;5.13;4.07;;;;;;;18.53;32.43;99990.38;5087878;28;20036;-66
2022/04/21 11:53:28;;;;;;;5.53;4.60;;;;;;;18.47;32.50;99983.84;5084197;28;20032;-67
2022/04/21 11:55:53;;;;;;;6.13;3.85;;;;;;;18.49;32.47;99994.50;5086200;28;20031;-67
2022/04/21 11:58:34;;;;;;;7.15;3.47;;;;;;;18.51;32.50;99974.25;5076683;28;20028;-66
2022/04/21 12:06:37;;;;;;;5.50;3.78;;;;;;;18.44;31.95;99957.06;5068599;28;20036;-67
2022/04/21 12:09:03;;;;;;;3.55;3.00;;;;;;;18.48;32.05;99955.66;5068222;28;20083;-67
2022/04/21 12:11:29;;;;;;;4.03;3.60;;;;;;;18.51;32.27;99951.72;5080329;28;20028;-67
2022/04/21 12:13:55;;;;;;;9.80;3.60;;;;;;;18.57;32.39;99954.47;5074848;28;20075;-67
2022/04/21 12:16:44;;;;;;;4.55;3.67;;;;;;;18.62;31.35;99952.03;5076771;28;20638;-66